createdAt,value
2017-06-16T00:01:16.757Z,8.43
2017-06-16T00:03:44.244Z,9.10
2017-06-16T00:06:11.808Z,10.90
2017-06-16T00:08:39.293Z,10.37
2017-06-16T00:11:06.784Z,8.67
2017-06-16T00:13:34.276Z,9.80
2017-06-16T00:16:01.868Z,10.87
2017-06-16T00:18:29.384Z,14.73
2017-06-16T00:20:57.640Z,7.10
2017-06-16T00:23:25.216Z,13.30
2017-06-16T00:25:52.756Z,10.00
2017-06-16T00:28:20.300Z,7.60
2017-06-16T00:30:47.848Z,9.60
2017-06-16T00:33:15.330Z,7.73
2017-06-16T00:35:42.829Z,8.67
2017-06-16T00:38:10.384Z,10.03
2017-06-16T00:40:37.920Z,5.17
2017-06-16T00:43:05.451Z,10.27
2017-06-16T00:45:33.008Z,18.20
2017-06-16T00:48:00.552Z,11.30
2017-06-16T00:50:28.044Z,11.33
2017-06-16T00:52:55.633Z,10.30
2017-06-16T00:55:23.112Z,8.87
2017-06-16T00:57:50.592Z,4.70
2017-06-16T01:00:18.854Z,14.07
2017-06-16T01:02:47.239Z,5.70
2017-06-16T01:05:14.734Z,13.97
2017-06-16T01:07:42.219Z,6.40
2017-06-16T01:10:09.728Z,10.47
2017-06-16T01:12:37.311Z,7.30
2017-06-16T01:15:04.805Z,12.10
2017-06-16T01:17:32.316Z,7.67
2017-06-16T01:19:59.844Z,15.60
2017-06-16T01:22:27.328Z,11.07
2017-06-16T01:24:54.938Z,9.30
2017-06-16T01:27:22.477Z,15.83
2017-06-16T01:29:50.016Z,12.07
2017-06-16T01:32:17.570Z,9.10
2017-06-16T01:34:45.106Z,13.93
2017-06-16T01:37:12.624Z,14.10
2017-06-16T01:39:41.009Z,18.60
2017-06-16T01:42:08.496Z,10.13
2017-06-16T01:44:35.980Z,11.50
2017-06-16T01:47:03.512Z,8.47
2017-06-16T01:49:31.797Z,12.40
2017-06-16T01:51:59.289Z,10.67
2017-06-16T01:54:26.884Z,13.10
2017-06-16T01:56:54.428Z,13.93
2017-06-16T01:59:21.972Z,16.53
2017-06-16T02:01:49.517Z,14.67
2017-06-16T02:04:17.009Z,19.33
2017-06-16T02:06:44.605Z,14.43
2017-06-16T02:09:12.617Z,11.50
2017-06-16T02:11:40.108Z,11.23
2017-06-16T02:14:07.612Z,15.20
2017-06-16T02:16:35.908Z,18.90
2017-06-16T02:19:03.407Z,11.20
2017-06-16T02:21:30.992Z,10.53
2017-06-16T02:23:58.500Z,15.50
2017-06-16T02:26:25.984Z,13.27
2017-06-16T02:28:53.520Z,19.77
2017-06-16T02:31:21.063Z,12.83
2017-06-16T02:33:48.552Z,19.43
2017-06-16T02:36:16.149Z,14.90
2017-06-16T02:38:43.703Z,8.43
2017-06-16T02:41:11.240Z,12.60
2017-06-16T02:43:38.729Z,13.03
2017-06-16T02:46:06.428Z,17.70
2017-06-16T02:48:33.973Z,10.10
2017-06-16T02:51:01.520Z,16.93
2017-06-16T02:53:29.156Z,13.00
2017-06-16T02:55:56.640Z,22.83
2017-06-16T02:58:24.149Z,11.20
2017-06-16T03:00:51.672Z,13.53
2017-06-16T03:03:19.940Z,18.67
2017-06-16T03:05:47.493Z,13.97
2017-06-16T03:08:15.045Z,21.23
2017-06-16T03:10:42.545Z,18.07
2017-06-16T03:13:10.837Z,15.57
2017-06-16T03:15:38.384Z,14.17
2017-06-16T03:18:05.928Z,13.83
2017-06-16T03:20:33.408Z,15.50
2017-06-16T03:23:01.776Z,22.47
2017-06-16T03:25:29.264Z,16.17
2017-06-16T03:27:56.811Z,14.50
2017-06-16T03:30:24.352Z,18.37
2017-06-16T03:32:51.892Z,20.30
2017-06-16T03:35:19.444Z,11.70
2017-06-16T03:37:47.188Z,14.87
2017-06-16T03:40:14.686Z,16.77
2017-06-16T03:42:42.180Z,11.57
2017-06-16T03:45:09.688Z,10.23
2017-06-16T03:47:37.944Z,15.20
2017-06-16T03:50:05.453Z,9.90
2017-06-16T03:52:32.964Z,18.03
2017-06-16T03:55:00.451Z,9.50
2017-06-16T03:57:28.052Z,12.50
2017-06-16T03:59:55.596Z,20.70
2017-06-16T04:02:23.140Z,21.47
2017-06-16T04:04:50.671Z,11.37
2017-06-16T04:07:18.176Z,14.13
2017-06-16T04:09:45.771Z,16.47
2017-06-16T04:12:13.316Z,22.93
2017-06-16T04:14:40.969Z,18.30
2017-06-16T04:17:09.252Z,12.50
2017-06-16T04:19:36.772Z,20.27
2017-06-16T04:22:04.308Z,17.53
2017-06-16T04:24:31.801Z,29.90
2017-06-16T04:26:59.497Z,23.80
2017-06-16T04:29:27.041Z,16.80
2017-06-16T04:31:54.528Z,11.73
2017-06-16T04:34:22.229Z,20.40
2017-06-16T04:36:49.768Z,26.37
2017-06-16T04:39:17.316Z,17.60
2017-06-16T04:41:44.858Z,23.20
2017-06-16T04:44:12.365Z,24.53
2017-06-16T04:46:39.874Z,18.77
2017-06-16T04:49:07.553Z,23.43
2017-06-16T04:51:35.132Z,18.50
2017-06-16T04:54:02.690Z,20.40
2017-06-16T04:56:30.309Z,26.23
2017-06-16T04:58:58.564Z,20.50
2017-06-16T05:01:26.820Z,20.33
2017-06-16T05:03:55.215Z,26.33
2017-06-16T05:06:22.709Z,18.73
2017-06-16T05:08:50.293Z,17.60
2017-06-16T05:11:17.839Z,19.00
2017-06-16T05:13:45.333Z,19.63
2017-06-16T05:16:12.931Z,17.20
2017-06-16T05:18:40.488Z,20.00
2017-06-16T05:21:08.016Z,28.13
2017-06-16T05:23:35.504Z,19.90
2017-06-16T05:26:03.126Z,26.77
2017-06-16T05:28:30.744Z,26.30
2017-06-16T05:30:58.288Z,28.13
2017-06-16T05:33:25.832Z,31.03
2017-06-16T05:35:53.320Z,32.97
2017-06-16T05:38:20.816Z,26.07
2017-06-16T05:40:48.342Z,28.67
2017-06-16T05:43:16.601Z,32.53
2017-06-16T05:45:44.860Z,27.60
2017-06-16T05:48:13.334Z,24.43
2017-06-16T05:50:40.836Z,22.87
2017-06-16T05:53:08.428Z,28.93
2017-06-16T05:55:35.980Z,21.37
2017-06-16T05:58:03.480Z,23.57
2017-06-16T06:00:30.972Z,26.67
2017-06-16T06:02:58.604Z,27.97
2017-06-16T06:05:26.088Z,27.23
2017-06-16T06:07:53.587Z,19.10
2017-06-16T06:10:21.123Z,26.50
2017-06-16T06:12:48.680Z,18.73
2017-06-16T06:15:16.220Z,22.73
2017-06-16T06:17:43.744Z,20.40
2017-06-16T06:20:11.312Z,27.70
2017-06-16T06:22:38.879Z,27.73
2017-06-16T06:25:06.376Z,26.30
2017-06-16T06:27:34.657Z,29.17
2017-06-16T06:30:02.162Z,25.33
2017-06-16T06:32:29.652Z,24.63
2017-06-16T06:34:57.184Z,22.60
2017-06-16T06:37:24.827Z,29.03
2017-06-16T06:39:52.373Z,26.30
2017-06-16T06:42:19.912Z,23.40
2017-06-16T06:44:47.416Z,27.93
2017-06-16T06:47:14.903Z,26.43
2017-06-16T06:49:42.445Z,30.90
2017-06-16T06:52:09.996Z,28.17
2017-06-16T06:54:37.531Z,27.00
2017-06-16T06:57:05.020Z,27.60
2017-06-16T06:59:32.724Z,29.20
2017-06-16T07:02:00.268Z,28.70
2017-06-16T07:04:27.756Z,20.37
2017-06-16T07:06:55.349Z,23.80
2017-06-16T07:09:22.844Z,29.70
2017-06-16T07:11:50.328Z,17.53
2017-06-16T07:14:17.894Z,25.47
2017-06-16T07:16:45.428Z,26.30
2017-06-16T07:19:12.928Z,31.03
2017-06-16T07:21:40.504Z,22.83
2017-06-16T07:24:07.987Z,22.03
2017-06-16T07:26:35.473Z,28.20
2017-06-16T07:29:03.760Z,19.07
2017-06-16T07:31:31.296Z,24.37
2017-06-16T07:33:58.840Z,31.00
2017-06-16T07:36:26.327Z,24.00
2017-06-16T07:38:53.852Z,23.53
2017-06-16T07:41:21.368Z,21.93
2017-06-16T07:43:48.852Z,20.33
2017-06-16T07:46:16.448Z,23.10
2017-06-16T07:48:43.932Z,14.90
2017-06-16T07:51:11.536Z,21.17
2017-06-16T07:53:39.089Z,13.83
2017-06-16T07:56:06.628Z,11.77
2017-06-16T07:58:34.124Z,15.50
2017-06-16T08:01:01.604Z,14.83
2017-06-16T08:03:29.124Z,14.67
2017-06-16T08:05:56.714Z,18.43
2017-06-16T08:08:24.204Z,14.47
2017-06-16T08:10:51.680Z,8.77
2017-06-16T08:13:19.175Z,12.60
2017-06-16T08:15:46.660Z,18.40
2017-06-16T08:18:14.216Z,11.70
2017-06-16T08:21:00.561Z,19.93
2017-06-16T08:23:28.136Z,12.60
2017-06-16T08:25:55.620Z,14.63
2017-06-16T08:28:23.100Z,9.87
2017-06-16T08:30:51.389Z,10.00
2017-06-16T08:33:18.926Z,13.30
2017-06-16T08:35:46.483Z,13.40
2017-06-16T08:38:14.016Z,12.57
2017-06-16T08:40:41.564Z,12.00
2017-06-16T08:43:09.106Z,12.97
2017-06-16T08:45:36.596Z,21.07
2017-06-16T08:48:04.081Z,8.10
2017-06-16T08:50:31.627Z,11.83
2017-06-16T08:52:59.104Z,9.80
2017-06-16T08:55:26.613Z,11.73
2017-06-16T08:57:54.154Z,12.27
2017-06-16T09:00:21.709Z,11.47
2017-06-16T09:02:49.193Z,17.60
2017-06-16T09:05:16.680Z,14.33
2017-06-16T09:07:44.168Z,11.50
2017-06-16T09:10:11.664Z,11.27
2017-06-16T09:12:39.140Z,8.33
2017-06-16T09:15:06.684Z,15.47
2017-06-16T09:17:34.199Z,11.77
2017-06-16T09:20:01.745Z,10.77
2017-06-16T09:22:29.346Z,9.27
2017-06-16T09:24:56.819Z,9.30
2017-06-16T09:27:24.300Z,5.70
2017-06-16T09:29:51.776Z,7.77
2017-06-16T09:32:19.261Z,12.73
2017-06-16T09:34:46.804Z,12.83
2017-06-16T09:37:14.340Z,11.73
2017-06-16T09:39:41.884Z,12.10
2017-06-16T09:42:09.431Z,12.20
2017-06-16T09:44:37.026Z,13.40
2017-06-16T09:47:04.512Z,8.60
2017-06-16T09:49:32.051Z,9.30
2017-06-16T09:51:59.600Z,16.57
2017-06-16T09:54:27.104Z,9.00
2017-06-16T09:56:54.585Z,13.70
2017-06-16T09:59:22.134Z,12.57
2017-06-16T10:01:49.620Z,7.40
2017-06-16T10:04:17.104Z,12.87
2017-06-16T10:06:44.660Z,10.80
2017-06-16T10:09:12.149Z,7.10
2017-06-16T10:11:39.756Z,11.10
2017-06-16T10:14:07.288Z,8.23
2017-06-16T10:16:34.772Z,14.47
2017-06-16T10:19:02.273Z,9.10
2017-06-16T10:21:29.776Z,14.40
2017-06-16T10:23:57.359Z,11.00
2017-06-16T10:26:24.972Z,6.93
2017-06-16T10:28:52.527Z,7.73
2017-06-16T10:31:20.016Z,12.67
2017-06-16T10:33:47.508Z,12.87
2017-06-16T10:36:15.804Z,11.93
2017-06-16T10:38:43.304Z,8.80
2017-06-16T10:41:10.789Z,7.23
2017-06-16T10:43:39.072Z,11.63
2017-06-16T10:46:06.592Z,8.07
2017-06-16T10:48:34.188Z,6.70
2017-06-16T10:51:01.671Z,8.10
2017-06-16T10:53:29.240Z,12.70
2017-06-16T10:55:56.889Z,14.03
2017-06-16T10:58:26.348Z,7.63
2017-06-16T11:00:54.020Z,13.97
2017-06-16T11:03:21.496Z,16.07
2017-06-16T11:05:48.976Z,7.20
2017-06-16T11:08:16.523Z,7.53
2017-06-16T11:10:44.064Z,13.83
2017-06-16T11:13:11.608Z,5.80
2017-06-16T11:15:39.263Z,7.40
2017-06-16T11:18:06.746Z,13.30
2017-06-16T11:20:34.240Z,7.90
2017-06-16T11:23:01.925Z,7.63
2017-06-16T11:25:29.948Z,9.30
2017-06-16T11:27:57.481Z,11.97
2017-06-16T11:30:25.004Z,9.17
2017-06-16T11:32:53.437Z,10.03
2017-06-16T11:35:20.916Z,12.07
2017-06-16T11:37:49.199Z,11.00
2017-06-16T11:40:16.809Z,11.03
2017-06-16T11:42:45.111Z,11.33
2017-06-16T11:45:12.646Z,10.50
2017-06-16T11:47:40.144Z,7.60
2017-06-16T11:50:08.396Z,11.27
2017-06-16T11:52:36.076Z,8.30
2017-06-16T11:55:04.383Z,6.70
2017-06-16T11:57:31.967Z,8.33
2017-06-16T12:00:00.321Z,7.07
2017-06-16T12:02:27.795Z,8.47
2017-06-16T12:04:55.276Z,5.90
2017-06-16T12:07:22.986Z,7.67
2017-06-16T12:09:50.480Z,14.93
2017-06-16T12:12:17.966Z,4.80
2017-06-16T12:14:45.546Z,10.70
2017-06-16T12:17:13.022Z,9.90
2017-06-16T12:19:40.606Z,4.97
2017-06-16T12:22:08.120Z,4.43
2017-06-16T12:24:36.368Z,8.50
2017-06-16T12:27:03.962Z,7.67
2017-06-16T12:29:31.495Z,7.27
2017-06-16T12:31:59.043Z,4.53
2017-06-16T12:34:26.580Z,11.03
2017-06-16T12:36:54.227Z,5.67
2017-06-16T12:39:21.767Z,6.60
2017-06-16T12:41:49.247Z,8.10
2017-06-16T12:44:16.881Z,9.33
2017-06-16T12:46:44.404Z,4.47
2017-06-16T12:49:11.945Z,6.00
2017-06-16T12:51:39.493Z,11.73
2017-06-16T12:54:06.976Z,13.40
2017-06-16T12:56:34.473Z,6.70
2017-06-16T12:59:02.020Z,4.60
2017-06-16T13:01:29.504Z,8.13
2017-06-16T13:03:56.989Z,5.83
2017-06-16T13:06:25.237Z,4.00
2017-06-16T13:08:53.621Z,11.60
2017-06-16T13:11:21.165Z,3.70
2017-06-16T13:13:48.644Z,4.23
2017-06-16T13:16:16.180Z,11.93
2017-06-16T13:18:43.689Z,3.97
2017-06-16T13:21:11.176Z,5.70
2017-06-16T13:23:38.687Z,5.40
2017-06-16T13:26:06.225Z,5.20
2017-06-16T13:28:33.776Z,13.50
2017-06-16T13:31:01.312Z,7.30
2017-06-16T13:33:28.852Z,5.10
2017-06-16T13:35:56.332Z,2.83
2017-06-16T13:38:23.892Z,5.17
2017-06-16T13:40:51.379Z,5.97
2017-06-16T13:43:18.860Z,4.77
2017-06-16T13:45:46.368Z,13.30
2017-06-16T13:48:13.908Z,4.23
2017-06-16T13:50:41.416Z,6.07
2017-06-16T13:53:09.026Z,4.53
2017-06-16T13:55:36.516Z,3.80
2017-06-16T13:58:04.934Z,3.63
2017-06-16T14:00:32.447Z,5.23
2017-06-16T14:02:59.923Z,2.37
2017-06-16T14:05:27.537Z,3.87
2017-06-16T14:07:55.080Z,8.43
2017-06-16T14:10:22.616Z,6.93
2017-06-16T14:12:50.160Z,5.43
2017-06-16T14:15:17.716Z,5.40
2017-06-16T14:17:45.256Z,4.50
2017-06-16T14:20:12.792Z,5.20
2017-06-16T14:22:40.364Z,6.07
2017-06-16T14:25:07.846Z,5.23
2017-06-16T14:27:35.429Z,14.47
2017-06-16T14:30:02.917Z,5.83
2017-06-16T14:32:30.395Z,7.87
2017-06-16T14:34:58.801Z,5.27
2017-06-16T14:37:26.287Z,6.67
2017-06-16T14:39:54.536Z,4.50
2017-06-16T14:42:22.115Z,5.90
2017-06-16T14:44:49.611Z,10.83
2017-06-16T14:47:17.267Z,5.23
2017-06-16T14:49:44.753Z,4.43
2017-06-16T14:52:12.289Z,7.40
2017-06-16T14:54:39.960Z,10.10
2017-06-16T14:57:07.479Z,5.70
2017-06-16T14:59:34.967Z,16.83
2017-06-16T15:02:02.495Z,11.80
2017-06-16T15:04:30.004Z,9.23
2017-06-16T15:06:57.552Z,8.23
2017-06-16T15:09:25.092Z,8.97
2017-06-16T15:11:52.572Z,9.20
2017-06-16T15:14:20.217Z,7.30
2017-06-16T15:16:47.725Z,9.83
2017-06-16T15:19:15.235Z,4.70
2017-06-16T15:21:42.742Z,5.67
2017-06-16T15:24:10.252Z,4.63
2017-06-16T15:26:37.764Z,5.97
2017-06-16T15:29:05.508Z,5.13
2017-06-16T15:31:33.088Z,6.70
2017-06-16T15:34:00.724Z,4.53
2017-06-16T15:36:28.996Z,11.80
2017-06-16T15:38:56.535Z,5.27
2017-06-16T15:41:24.904Z,7.33
2017-06-16T15:43:52.381Z,4.57
2017-06-16T15:46:19.888Z,7.40
2017-06-16T15:48:47.436Z,8.40
2017-06-16T15:51:14.974Z,5.87
2017-06-16T15:53:42.516Z,5.97
2017-06-16T15:56:09.997Z,7.97
2017-06-16T15:58:37.601Z,8.57
2017-06-16T16:01:05.084Z,6.00
2017-06-16T16:03:32.556Z,6.20
2017-06-16T16:06:00.233Z,5.23
2017-06-16T16:08:27.708Z,5.00
2017-06-16T16:10:55.216Z,4.10
2017-06-16T16:13:22.764Z,12.40
2017-06-16T16:15:50.310Z,8.90
2017-06-16T16:18:17.840Z,9.50
2017-06-16T16:20:45.499Z,7.87
2017-06-16T16:23:13.016Z,5.27
2017-06-16T16:25:41.302Z,5.20
2017-06-16T16:28:08.792Z,7.70
2017-06-16T16:30:36.296Z,7.00
2017-06-16T16:33:03.795Z,6.30
2017-06-16T16:35:31.283Z,5.23
2017-06-16T16:37:58.809Z,5.20
2017-06-16T16:40:26.295Z,4.10
2017-06-16T16:42:53.785Z,6.80
2017-06-16T16:45:22.055Z,4.63
2017-06-16T16:47:49.573Z,5.60
2017-06-16T16:50:17.835Z,5.47
2017-06-16T16:52:46.084Z,6.17
2017-06-16T16:55:14.548Z,9.23
2017-06-16T16:57:42.036Z,4.47
2017-06-16T17:00:09.557Z,6.27
2017-06-16T17:02:37.812Z,5.93
2017-06-16T17:05:06.332Z,6.53
2017-06-16T17:07:33.840Z,4.57
2017-06-16T17:10:01.384Z,5.63
2017-06-16T17:12:29.247Z,9.00
2017-06-16T17:14:56.776Z,7.47
2017-06-16T17:17:24.255Z,4.57
2017-06-16T17:19:51.767Z,11.70
2017-06-16T17:22:19.304Z,8.77
2017-06-16T17:24:46.853Z,13.63
2017-06-16T17:27:14.387Z,6.43
2017-06-16T17:29:41.871Z,6.57
2017-06-16T17:32:09.385Z,5.27
2017-06-16T17:34:36.977Z,4.60
2017-06-16T17:37:04.469Z,5.63
2017-06-16T17:39:32.012Z,6.33
2017-06-16T17:41:59.621Z,4.47
2017-06-16T17:44:27.096Z,8.33
2017-06-16T17:46:54.631Z,8.73
2017-06-16T17:49:22.380Z,5.60
2017-06-16T17:51:49.862Z,7.10
2017-06-16T17:54:17.348Z,5.43
2017-06-16T17:56:45.729Z,6.20
2017-06-16T17:59:13.213Z,5.77
2017-06-16T18:01:40.745Z,9.97
2017-06-16T18:04:08.259Z,6.83
2017-06-16T18:06:35.756Z,6.97
2017-06-16T18:09:03.273Z,6.30
2017-06-16T18:11:30.793Z,7.30
2017-06-16T18:13:58.336Z,8.03
2017-06-16T18:16:25.876Z,5.13
2017-06-16T18:18:53.417Z,8.00
2017-06-16T18:21:20.908Z,10.30
2017-06-16T18:23:48.604Z,11.73
2017-06-16T18:26:16.085Z,4.20
2017-06-16T18:28:43.564Z,6.33
2017-06-16T18:31:11.962Z,5.97
2017-06-16T18:33:39.454Z,11.60
2017-06-16T18:36:06.932Z,7.20
2017-06-16T18:38:35.217Z,4.73
2017-06-16T18:41:02.701Z,5.73
2017-06-16T18:43:30.184Z,4.67
2017-06-16T18:45:57.702Z,6.57
2017-06-16T18:48:25.988Z,7.30
2017-06-16T18:50:53.464Z,8.87
2017-06-16T18:53:20.981Z,4.43
2017-06-16T18:55:48.512Z,9.60
2017-06-16T18:58:16.061Z,7.73
2017-06-16T19:00:43.604Z,6.87
2017-06-16T19:03:11.108Z,3.50
2017-06-16T19:05:38.586Z,7.57
2017-06-16T19:08:06.128Z,7.50
2017-06-16T19:10:33.672Z,4.20
2017-06-16T19:13:01.424Z,7.00
2017-06-16T19:15:28.904Z,7.10
2017-06-16T19:17:56.380Z,7.00
2017-06-16T19:20:24.669Z,6.63
2017-06-16T19:22:52.209Z,12.90
2017-06-16T19:25:19.757Z,9.70
2017-06-16T19:27:47.258Z,6.33
2017-06-16T19:30:14.839Z,4.00
2017-06-16T19:32:42.327Z,7.27
2017-06-16T19:35:10.013Z,6.07
2017-06-16T19:37:38.264Z,11.23
2017-06-16T19:40:06.517Z,4.90
2017-06-16T19:42:34.098Z,4.40
2017-06-16T19:45:01.600Z,5.30
2017-06-16T19:47:29.285Z,7.93
2017-06-16T19:49:56.833Z,5.43
2017-06-16T19:52:24.368Z,3.90
2017-06-16T19:54:51.912Z,13.13
2017-06-16T19:57:19.457Z,5.40
2017-06-16T19:59:46.976Z,4.37
2017-06-16T20:02:15.257Z,6.20
2017-06-16T20:04:42.740Z,5.20
2017-06-16T20:07:10.233Z,5.87
2017-06-16T20:09:38.604Z,4.20
2017-06-16T20:12:06.093Z,10.57
2017-06-16T20:14:33.591Z,5.63
2017-06-16T20:17:01.265Z,4.87
2017-06-16T20:19:28.756Z,6.40
2017-06-16T20:21:57.012Z,6.40
2017-06-16T20:24:25.504Z,5.50
2017-06-16T20:26:53.051Z,5.47
2017-06-16T20:29:20.601Z,5.70
2017-06-16T20:31:48.124Z,6.13
2017-06-16T20:34:16.508Z,8.73
2017-06-16T20:36:43.999Z,7.83
2017-06-16T20:39:11.692Z,9.40
2017-06-16T20:41:39.235Z,8.50
2017-06-16T20:44:06.805Z,10.70
2017-06-16T20:46:34.300Z,5.70
2017-06-16T20:49:02.576Z,4.37
2017-06-16T20:51:30.060Z,4.40
2017-06-16T20:53:57.580Z,9.30
2017-06-16T20:56:25.103Z,6.47
2017-06-16T20:58:52.657Z,3.83
2017-06-16T21:01:20.400Z,7.33
2017-06-16T21:03:47.900Z,6.90
2017-06-16T21:06:15.388Z,13.10
2017-06-16T21:08:43.676Z,6.43
2017-06-16T21:11:11.224Z,4.13
2017-06-16T21:13:38.717Z,11.77
2017-06-16T21:16:06.233Z,10.23
2017-06-16T21:18:33.719Z,9.50
2017-06-16T21:21:07.745Z,8.77
2017-06-16T21:23:35.293Z,7.33
2017-06-16T21:26:02.839Z,6.70
2017-06-16T21:28:30.376Z,4.47
2017-06-16T21:30:57.856Z,7.67
2017-06-16T21:33:25.368Z,6.03
2017-06-16T21:35:52.853Z,5.63
2017-06-16T21:38:20.373Z,6.87
2017-06-16T21:40:47.856Z,3.97
2017-06-16T21:43:16.108Z,5.50
2017-06-16T21:45:43.697Z,17.33
2017-06-16T21:48:11.237Z,9.80
2017-06-16T21:50:38.757Z,7.93
2017-06-16T21:53:07.587Z,10.03
2017-06-16T21:55:35.099Z,12.10
2017-06-16T21:58:02.640Z,35.93
2017-06-16T22:00:30.180Z,5.80
2017-06-16T22:02:57.720Z,11.27
2017-06-16T22:05:25.219Z,8.43
2017-06-16T22:07:53.460Z,6.87
2017-06-16T22:10:21.039Z,14.40
2017-06-16T22:12:48.531Z,7.00
2017-06-16T22:15:16.014Z,7.67
2017-06-16T22:17:44.276Z,10.47
2017-06-16T22:20:11.765Z,6.77
2017-06-16T22:22:39.264Z,7.40
2017-06-16T22:25:06.816Z,11.80
2017-06-16T22:27:34.352Z,6.00
2017-06-16T22:30:01.901Z,12.23
2017-06-16T22:32:29.444Z,6.83
2017-06-16T22:34:56.921Z,8.70
2017-06-16T22:37:24.425Z,5.30
2017-06-16T22:39:51.912Z,9.60
2017-06-16T22:42:19.416Z,10.87
2017-06-16T22:44:46.940Z,11.63
2017-06-16T22:47:14.433Z,10.17
2017-06-16T22:49:41.939Z,9.37
2017-06-16T22:52:09.440Z,12.73
2017-06-16T22:54:37.132Z,9.50
2017-06-16T22:57:04.703Z,8.20
2017-06-16T22:59:32.217Z,8.33
2017-06-16T23:01:59.763Z,6.97
2017-06-16T23:04:27.252Z,13.97
2017-06-16T23:06:54.763Z,6.50
2017-06-16T23:09:22.368Z,11.50
2017-06-16T23:11:49.948Z,10.37
2017-06-16T23:14:17.496Z,14.10
2017-06-16T23:16:45.040Z,9.90
2017-06-16T23:19:12.584Z,13.50
2017-06-16T23:21:40.129Z,12.87
2017-06-16T23:24:07.664Z,10.50
2017-06-16T23:26:35.152Z,9.03
2017-06-16T23:29:02.667Z,7.90
2017-06-16T23:31:30.200Z,11.57
2017-06-16T23:33:57.693Z,11.10
2017-06-16T23:36:25.184Z,13.57
2017-06-16T23:38:52.724Z,9.67
2017-06-16T23:41:20.268Z,8.03
2017-06-16T23:43:47.812Z,12.77
2017-06-16T23:46:15.385Z,6.70
2017-06-16T23:48:42.897Z,9.90
2017-06-16T23:51:10.396Z,7.93
2017-06-16T23:53:37.894Z,8.20
2017-06-16T23:56:05.431Z,5.87
2017-06-16T23:58:32.920Z,7.67
